YCEM weather

Coldstream Airport
Coldstream, Victoria, Australia

Public forecast

Using degrees Celsius for public forecast. Weather courtesy of forecast.io.

Closest aviation weather report (METAR) to Coldstream Airport

Closest report is Melbourne Essendon Airport, 24.0 nm (44.5 km) W. Retrieved 2019/10/21 01:00 UTC (4 minutes ago):

YMEN 210100Z AUTO 22006KT 9999 // BKN024 14/07 Q1029

Closest aviation forecast (TAF) to Coldstream Airport

Forecast is more than 12 hours old.

Closest forecast is Melbourne International Airport, 27.1 nm (50.1 km) W. Retrieved 2019/10/20 12:38 UTC (12 hours ago):

TAF YMML 201132Z 2012/2118 24010KT 9999 BKN025 BECMG 2023/2024 17014KT CAVOK FM211000 19006KT 9999 BKN012 TEMPO 2014/2018 9999 BKN015 TEMPO 2018/2022 9999 BKN010 TEMPO 2116/2118 9999 BKN009